createdAt,value
2022-10-10T00:01:42.885Z,10.90
2022-10-10T00:04:12.760Z,10.90
2022-10-10T00:07:06.760Z,10.90
2022-10-10T00:09:35.289Z,10.90
2022-10-10T00:12:03.741Z,10.80
2022-10-10T00:14:47.578Z,10.80
2022-10-10T00:17:15.882Z,10.80
2022-10-10T00:19:50.599Z,10.80
2022-10-10T00:22:19.330Z,10.80
2022-10-10T00:24:47.995Z,10.80
2022-10-10T00:27:16.476Z,10.80
2022-10-10T00:29:45.391Z,10.70
2022-10-10T00:32:13.894Z,10.70
2022-10-10T00:34:42.363Z,10.60
2022-10-10T00:37:12.528Z,10.50
2022-10-10T00:39:41.196Z,10.50
2022-10-10T00:42:13.839Z,10.50
2022-10-10T00:44:42.953Z,10.40
2022-10-10T00:47:11.528Z,10.40
2022-10-10T00:49:43.153Z,10.30
2022-10-10T00:52:13.742Z,10.20
2022-10-10T00:54:42.362Z,10.20
2022-10-10T00:57:13.522Z,10.00
2022-10-10T01:00:06.992Z,9.90
2022-10-10T01:02:36.661Z,9.90
2022-10-10T01:05:06.038Z,9.90
2022-10-10T01:07:36.371Z,9.80
2022-10-10T01:10:09.207Z,9.80
2022-10-10T01:13:09.092Z,9.80
2022-10-10T01:15:50.605Z,9.80
2022-10-10T01:18:27.435Z,9.70
2022-10-10T01:21:09.261Z,9.70
2022-10-10T01:24:09.974Z,9.70
2022-10-10T01:27:36.625Z,9.70
2022-10-10T01:30:08.851Z,9.60
2022-10-10T01:32:42.576Z,9.60
2022-10-10T01:35:25.827Z,9.60
2022-10-10T01:38:00.952Z,9.60
2022-10-10T01:40:35.237Z,9.60
2022-10-10T01:46:17.536Z,9.70
2022-10-10T01:48:50.294Z,9.70
2022-10-10T01:51:34.178Z,9.70
2022-10-10T01:54:08.697Z,9.60
2022-10-10T01:56:46.210Z,9.60
2022-10-10T01:59:36.211Z,9.60
2022-10-10T02:02:13.036Z,9.60
2022-10-10T02:04:48.035Z,9.60
2022-10-10T02:07:20.699Z,9.60
2022-10-10T02:09:51.357Z,9.60
2022-10-10T02:12:21.567Z,9.60
2022-10-10T02:14:52.806Z,9.50
2022-10-10T02:17:25.751Z,9.50
2022-10-10T02:20:21.767Z,9.60
2022-10-10T02:22:52.562Z,9.50
2022-10-10T02:25:25.042Z,9.50
2022-10-10T02:28:05.701Z,9.50
2022-10-10T02:30:38.190Z,9.50
2022-10-10T02:33:09.985Z,9.50
2022-10-10T02:35:42.604Z,9.50
2022-10-10T02:38:14.539Z,9.60
2022-10-10T02:40:47.379Z,9.60
2022-10-10T02:43:18.243Z,9.50
2022-10-10T02:46:13.615Z,9.50
2022-10-10T02:48:45.197Z,9.50
2022-10-10T02:51:15.749Z,9.50
2022-10-10T02:53:44.404Z,9.40
2022-10-10T02:56:13.096Z,9.40
2022-10-10T02:58:41.477Z,9.40
2022-10-10T03:01:10.535Z,9.40
2022-10-10T03:03:43.534Z,9.30
2022-10-10T03:06:11.934Z,9.30
2022-10-10T03:08:40.462Z,9.40
2022-10-10T03:11:09.003Z,9.40
2022-10-10T03:13:37.447Z,9.30
2022-10-10T03:16:07.006Z,9.20
2022-10-10T03:18:35.281Z,9.20
2022-10-10T03:21:06.225Z,9.30
2022-10-10T03:23:35.581Z,9.20
2022-10-10T03:26:04.350Z,9.20
2022-10-10T03:28:32.856Z,9.20
2022-10-10T03:31:01.429Z,9.20
2022-10-10T03:33:30.102Z,9.20
2022-10-10T03:35:58.431Z,9.20
2022-10-10T03:38:28.072Z,9.10
2022-10-10T03:40:56.769Z,9.10
2022-10-10T03:43:25.091Z,9.10
2022-10-10T03:45:53.389Z,9.10
2022-10-10T03:48:21.837Z,9.10
2022-10-10T03:50:50.189Z,9.10
2022-10-10T03:53:44.750Z,9.10
2022-10-10T03:56:13.399Z,9.10
2022-10-10T03:58:41.705Z,9.00
2022-10-10T04:01:10.284Z,9.10
2022-10-10T04:03:38.810Z,9.10
2022-10-10T04:06:07.573Z,9.00
2022-10-10T04:09:01.896Z,9.00
2022-10-10T04:11:30.125Z,8.90
2022-10-10T04:13:58.687Z,8.90
2022-10-10T04:16:27.383Z,8.90
2022-10-10T04:18:55.842Z,8.90
2022-10-10T04:21:24.394Z,8.90
2022-10-10T04:23:52.867Z,8.90
2022-10-10T04:26:22.751Z,8.90
2022-10-10T04:29:07.265Z,8.90
2022-10-10T04:31:35.796Z,8.80
2022-10-10T04:34:04.149Z,8.80
2022-10-10T04:36:32.683Z,8.70
2022-10-10T04:39:00.982Z,8.80
2022-10-10T04:41:30.684Z,8.80
2022-10-10T04:44:05.226Z,8.80
2022-10-10T04:46:33.679Z,8.80
2022-10-10T04:49:02.175Z,8.80
2022-10-10T04:51:30.384Z,8.80
2022-10-10T04:53:59.155Z,8.80
2022-10-10T04:56:28.424Z,8.80
2022-10-10T04:58:58.173Z,8.80
2022-10-10T05:01:26.713Z,8.80
2022-10-10T05:03:56.381Z,8.90
2022-10-10T05:06:24.739Z,9.00
2022-10-10T05:08:53.205Z,9.00
2022-10-10T05:11:21.815Z,9.10
2022-10-10T05:13:50.958Z,9.20
2022-10-10T05:16:20.783Z,9.10
2022-10-10T05:18:49.211Z,9.20
2022-10-10T05:21:17.847Z,9.30
2022-10-10T05:23:46.339Z,9.30
2022-10-10T05:26:14.799Z,9.40
2022-10-10T05:28:43.163Z,9.40
2022-10-10T05:31:11.719Z,9.40
2022-10-10T05:33:42.015Z,9.40
2022-10-10T05:36:12.137Z,9.50
2022-10-10T05:38:41.773Z,9.50
2022-10-10T05:41:10.907Z,9.60
2022-10-10T05:43:39.247Z,9.70
2022-10-10T05:46:08.017Z,9.80
2022-10-10T05:48:36.321Z,9.90
2022-10-10T05:51:07.500Z,10.00
2022-10-10T05:53:35.883Z,10.10
2022-10-10T05:56:04.270Z,10.30
2022-10-10T05:58:32.832Z,10.40
2022-10-10T06:01:05.032Z,10.60
2022-10-10T06:03:33.475Z,10.80
2022-10-10T06:06:01.872Z,11.00
2022-10-10T06:08:32.617Z,11.20
2022-10-10T06:11:05.743Z,11.40
2022-10-10T06:13:34.386Z,11.60
2022-10-10T06:16:03.125Z,11.80
2022-10-10T06:18:31.689Z,12.10
2022-10-10T06:21:03.835Z,12.40
2022-10-10T06:23:33.940Z,12.60
2022-10-10T06:26:02.236Z,12.80
2022-10-10T06:28:30.755Z,12.90
2022-10-10T06:31:01.906Z,13.10
2022-10-10T06:33:30.589Z,13.20
2022-10-10T06:35:59.037Z,13.30
2022-10-10T06:38:28.573Z,13.40
2022-10-10T06:41:03.159Z,13.40
2022-10-10T06:43:31.461Z,13.40
2022-10-10T06:46:00.468Z,13.40
2022-10-10T06:48:30.051Z,13.40
2022-10-10T06:51:00.033Z,13.50
2022-10-10T06:53:29.548Z,13.60
2022-10-10T06:56:00.522Z,13.60
2022-10-10T06:58:30.371Z,13.60
2022-10-10T07:01:00.849Z,13.60
2022-10-10T07:03:30.052Z,13.50
2022-10-10T07:06:00.787Z,13.60
2022-10-10T07:08:29.895Z,13.70
2022-10-10T07:10:59.897Z,13.70
2022-10-10T07:13:28.157Z,13.70
2022-10-10T07:15:56.474Z,13.80
2022-10-10T07:18:24.976Z,13.90
2022-10-10T07:20:57.175Z,14.00
2022-10-10T07:23:25.803Z,14.30
2022-10-10T07:26:01.905Z,14.40
2022-10-10T07:28:30.858Z,14.60
2022-10-10T07:31:12.364Z,14.70
2022-10-10T07:33:48.964Z,14.90
2022-10-10T07:36:18.397Z,15.10
2022-10-10T07:38:50.980Z,15.20
2022-10-10T07:41:21.670Z,15.30
2022-10-10T07:43:54.878Z,15.40
2022-10-10T07:46:24.720Z,15.50
2022-10-10T07:48:53.365Z,15.70
2022-10-10T07:51:21.666Z,15.90
2022-10-10T07:53:49.941Z,16.10
2022-10-10T07:56:18.397Z,16.20
2022-10-10T07:58:48.259Z,16.20
2022-10-10T08:01:16.892Z,16.20
2022-10-10T08:03:45.289Z,16.10
2022-10-10T08:06:15.486Z,16.20
2022-10-10T08:08:51.254Z,16.30
2022-10-10T08:11:21.684Z,16.40
2022-10-10T08:13:51.844Z,16.40
2022-10-10T08:16:20.845Z,16.50
2022-10-10T08:18:49.532Z,16.40
2022-10-10T08:21:18.432Z,16.40
2022-10-10T08:23:46.999Z,16.50
2022-10-10T08:26:17.524Z,16.60
2022-10-10T08:28:47.429Z,16.80
2022-10-10T08:31:19.591Z,16.80
2022-10-10T08:33:49.454Z,17.00
2022-10-10T08:36:20.032Z,17.10
2022-10-10T08:38:48.797Z,17.20
2022-10-10T08:41:25.416Z,17.30
2022-10-10T08:43:58.816Z,17.40
2022-10-10T08:46:37.100Z,17.40
2022-10-10T08:49:17.429Z,17.40
2022-10-10T08:52:14.927Z,17.30
2022-10-10T08:54:45.859Z,17.30
2022-10-10T08:57:26.081Z,17.30
2022-10-10T08:59:59.093Z,17.20
2022-10-10T09:02:53.806Z,17.20
2022-10-10T09:05:35.818Z,17.20
2022-10-10T09:08:27.017Z,17.10
2022-10-10T09:10:59.842Z,17.10
2022-10-10T09:13:34.772Z,17.10
2022-10-10T09:16:07.461Z,17.10
2022-10-10T09:19:00.835Z,17.10
2022-10-10T09:21:34.083Z,17.20
2022-10-10T09:24:07.001Z,17.20
2022-10-10T09:26:39.697Z,17.30
2022-10-10T09:29:34.701Z,17.50
2022-10-10T09:32:10.180Z,17.70
2022-10-10T09:34:42.930Z,17.90
2022-10-10T09:37:24.360Z,17.90
2022-10-10T09:40:02.556Z,17.90
2022-10-10T09:42:36.017Z,17.80
2022-10-10T09:45:04.787Z,17.90
2022-10-10T09:47:34.453Z,17.90
2022-10-10T09:50:05.187Z,17.90
2022-10-10T09:52:33.850Z,17.90
2022-10-10T09:55:06.252Z,17.90
2022-10-10T09:57:40.519Z,18.00
2022-10-10T10:01:00.547Z,18.10
2022-10-10T10:03:35.562Z,18.10
2022-10-10T10:06:05.394Z,18.10
2022-10-10T10:08:35.468Z,18.10
2022-10-10T10:11:06.787Z,18.00
2022-10-10T10:13:37.179Z,18.00
2022-10-10T10:16:08.703Z,18.00
2022-10-10T10:18:43.142Z,18.10
2022-10-10T10:21:22.433Z,18.20
2022-10-10T10:23:57.331Z,18.30
2022-10-10T10:26:28.878Z,18.50
2022-10-10T10:28:59.423Z,18.70
2022-10-10T10:31:57.855Z,18.90
2022-10-10T10:35:20.196Z,19.00
2022-10-10T10:38:09.979Z,19.20
2022-10-10T10:40:42.981Z,19.40
2022-10-10T10:43:45.302Z,19.50
2022-10-10T10:46:25.574Z,19.50
2022-10-10T10:49:02.357Z,19.50
2022-10-10T10:52:04.705Z,19.40
2022-10-10T10:54:48.327Z,19.30
2022-10-10T10:57:32.811Z,19.30
2022-10-10T11:00:26.381Z,19.20
2022-10-10T11:05:15.806Z,19.10
2022-10-10T11:06:59.992Z,19.10
2022-10-10T11:09:56.122Z,19.10
2022-10-10T11:12:39.179Z,19.10
2022-10-10T11:15:15.464Z,19.20
2022-10-10T11:17:48.532Z,19.20
2022-10-10T11:20:25.463Z,19.20
2022-10-10T11:22:59.968Z,19.10
2022-10-10T11:25:34.131Z,19.10
2022-10-10T11:28:07.222Z,19.00
2022-10-10T11:30:42.105Z,19.00
2022-10-10T11:33:15.477Z,19.00
2022-10-10T11:35:48.022Z,19.00
2022-10-10T11:38:45.038Z,19.00
2022-10-10T11:41:19.219Z,18.90
2022-10-10T11:43:52.920Z,18.90
2022-10-10T11:46:29.414Z,18.90
2022-10-10T11:49:48.614Z,19.00
2022-10-10T11:52:33.995Z,19.00
2022-10-10T11:55:10.420Z,19.10
2022-10-10T11:57:44.482Z,19.10
2022-10-10T12:00:16.029Z,19.10
2022-10-10T12:02:46.151Z,19.10
2022-10-10T12:05:23.948Z,19.10
2022-10-10T12:08:06.104Z,19.20
2022-10-10T12:10:37.972Z,19.20
2022-10-10T12:13:26.391Z,19.20
2022-10-10T12:15:57.969Z,19.30
2022-10-10T12:18:30.065Z,19.50
2022-10-10T12:21:26.088Z,19.60
2022-10-10T12:24:04.490Z,19.70
2022-10-10T12:27:11.541Z,19.70
2022-10-10T12:29:51.050Z,19.70
2022-10-10T12:32:29.388Z,19.70
2022-10-10T12:35:02.372Z,19.70
2022-10-10T12:37:32.805Z,19.80
2022-10-10T12:40:19.902Z,19.80
2022-10-10T12:43:25.300Z,19.90
2022-10-10T12:46:16.652Z,20.10
2022-10-10T12:48:45.944Z,20.10
2022-10-10T12:51:21.317Z,20.10
2022-10-10T12:53:53.402Z,20.10
2022-10-10T12:56:35.371Z,20.10
2022-10-10T12:59:04.351Z,20.00
2022-10-10T13:01:45.671Z,20.00
2022-10-10T13:04:17.873Z,20.00
2022-10-10T13:06:49.123Z,19.90
2022-10-10T13:09:21.505Z,19.90
2022-10-10T13:11:55.177Z,19.80
2022-10-10T13:14:24.660Z,19.90
2022-10-10T13:16:54.974Z,19.90
2022-10-10T13:19:25.449Z,19.90
2022-10-10T13:21:56.677Z,19.90
2022-10-10T13:24:30.913Z,19.90
2022-10-10T13:26:59.891Z,20.00
2022-10-10T13:29:32.280Z,20.00
2022-10-10T13:32:05.470Z,20.00
2022-10-10T13:34:36.821Z,20.10
2022-10-10T13:37:07.765Z,20.00
2022-10-10T13:40:02.015Z,20.00
2022-10-10T13:42:36.850Z,19.90
2022-10-10T13:45:33.162Z,19.90
2022-10-10T13:48:28.718Z,19.80
2022-10-10T13:51:09.113Z,19.80
2022-10-10T13:53:50.125Z,20.00
2022-10-10T13:56:24.638Z,20.10
2022-10-10T13:58:55.206Z,20.20
2022-10-10T14:01:38.764Z,20.10
2022-10-10T14:04:18.986Z,20.00
2022-10-10T14:06:57.296Z,20.00
2022-10-10T14:09:30.225Z,19.90
2022-10-10T14:12:00.788Z,19.80
2022-10-10T14:14:35.859Z,19.80
2022-10-10T14:17:06.548Z,19.70
2022-10-10T14:19:36.707Z,19.60
2022-10-10T14:22:05.095Z,19.50
2022-10-10T14:24:33.416Z,19.40
2022-10-10T14:27:08.615Z,19.40
2022-10-10T14:30:19.131Z,19.30
2022-10-10T14:32:47.449Z,19.30
2022-10-10T14:35:17.763Z,19.20
2022-10-10T14:37:46.362Z,19.20
2022-10-10T14:40:20.988Z,19.20
2022-10-10T14:42:49.648Z,19.30
2022-10-10T14:45:18.506Z,19.30
2022-10-10T14:47:46.735Z,19.30
2022-10-10T14:50:20.945Z,19.30
2022-10-10T14:52:49.842Z,19.30
2022-10-10T14:55:18.695Z,19.20
2022-10-10T14:57:47.236Z,19.10
2022-10-10T15:00:18.432Z,19.10
2022-10-10T15:02:47.225Z,18.90
2022-10-10T15:05:17.408Z,18.80
2022-10-10T15:07:46.154Z,18.70
2022-10-10T15:13:04.287Z,18.60
2022-10-10T15:15:32.720Z,18.60
2022-10-10T15:18:02.123Z,18.50
2022-10-10T15:20:32.014Z,18.40
2022-10-10T15:23:01.346Z,18.30
2022-10-10T15:25:33.761Z,18.20
2022-10-10T15:28:03.423Z,18.10
2022-10-10T15:30:32.236Z,18.10
2022-10-10T15:33:00.549Z,18.00
2022-10-10T15:35:44.691Z,17.90
2022-10-10T15:38:18.828Z,17.90
2022-10-10T15:40:47.170Z,17.80
2022-10-10T15:43:16.114Z,17.70
2022-10-10T15:45:55.389Z,17.60
2022-10-10T15:48:24.961Z,17.60
2022-10-10T15:50:53.506Z,17.50
2022-10-10T15:53:23.567Z,17.40
2022-10-10T15:55:51.817Z,17.40
2022-10-10T15:58:20.111Z,17.30
2022-10-10T16:00:48.659Z,17.20
2022-10-10T16:03:17.091Z,17.20
2022-10-10T16:05:45.432Z,17.10
2022-10-10T16:08:13.692Z,17.10
2022-10-10T16:10:44.607Z,17.00
2022-10-10T16:13:13.054Z,16.90
2022-10-10T16:15:41.380Z,16.90
2022-10-10T16:18:10.022Z,16.80
2022-10-10T16:20:39.917Z,16.70
2022-10-10T16:23:08.445Z,16.70
2022-10-10T16:25:36.730Z,16.60
2022-10-10T16:28:06.882Z,16.60
2022-10-10T16:30:35.243Z,16.50
2022-10-10T16:33:03.911Z,16.40
2022-10-10T16:35:32.494Z,16.40
2022-10-10T16:38:00.791Z,16.30
2022-10-10T16:40:29.093Z,16.20
2022-10-10T16:42:57.665Z,16.20
2022-10-10T16:45:27.652Z,16.20
2022-10-10T16:47:55.870Z,16.10
2022-10-10T16:50:24.212Z,16.00
2022-10-10T16:52:52.888Z,15.90
2022-10-10T16:55:21.153Z,15.90
2022-10-10T16:57:49.751Z,15.70
2022-10-10T17:00:18.504Z,15.60
2022-10-10T17:02:48.747Z,15.50
2022-10-10T17:05:41.832Z,15.40
2022-10-10T17:08:10.470Z,15.30
2022-10-10T17:10:38.895Z,15.20
2022-10-10T17:13:07.534Z,15.10
2022-10-10T17:15:36.154Z,15.00
2022-10-10T17:18:09.706Z,14.90
2022-10-10T17:20:43.039Z,14.80
2022-10-10T17:23:11.451Z,14.70
2022-10-10T17:25:42.660Z,14.70
2022-10-10T17:28:11.450Z,14.60
2022-10-10T17:30:44.846Z,14.60
2022-10-10T17:33:18.703Z,14.50
2022-10-10T17:35:50.198Z,14.40
2022-10-10T17:38:38.503Z,14.30
2022-10-10T17:41:08.592Z,14.30
2022-10-10T17:43:37.383Z,14.20
2022-10-10T17:46:29.389Z,14.20
2022-10-10T17:49:23.841Z,14.10
2022-10-10T17:51:52.158Z,14.10
2022-10-10T17:54:20.672Z,14.10
2022-10-10T17:56:49.221Z,14.00
2022-10-10T17:59:51.658Z,14.00
2022-10-10T18:02:20.266Z,14.00
2022-10-10T18:04:50.415Z,13.90
2022-10-10T18:07:45.278Z,13.90
2022-10-10T18:10:13.564Z,13.90
2022-10-10T18:12:41.835Z,13.90
2022-10-10T18:15:10.951Z,13.90
2022-10-10T18:17:39.362Z,13.80
2022-10-10T18:20:11.375Z,13.80
2022-10-10T18:22:39.751Z,13.90
2022-10-10T18:25:08.544Z,13.80
2022-10-10T18:27:37.105Z,13.90
2022-10-10T18:30:06.193Z,13.80
2022-10-10T18:32:34.612Z,13.80
2022-10-10T18:35:02.884Z,13.80
2022-10-10T18:37:32.885Z,13.80
2022-10-10T18:40:01.307Z,13.80
2022-10-10T18:42:29.746Z,13.80
2022-10-10T18:44:58.399Z,13.80
2022-10-10T18:47:26.700Z,13.80
2022-10-10T18:49:55.190Z,13.70
2022-10-10T18:52:25.742Z,13.80
2022-10-10T18:54:55.759Z,13.70
2022-10-10T18:57:24.189Z,13.80
2022-10-10T18:59:52.808Z,13.90
2022-10-10T19:02:21.489Z,13.80
2022-10-10T19:04:51.103Z,13.80
2022-10-10T19:07:19.300Z,13.70
2022-10-10T19:09:47.625Z,13.60
2022-10-10T19:12:17.772Z,13.60
2022-10-10T19:14:46.268Z,13.60
2022-10-10T19:17:14.546Z,13.60
2022-10-10T19:19:42.991Z,13.60
2022-10-10T19:22:11.473Z,13.60
2022-10-10T19:24:39.737Z,13.60
2022-10-10T19:27:08.026Z,13.50
2022-10-10T19:29:37.877Z,13.50
2022-10-10T19:32:06.313Z,13.50
2022-10-10T19:34:34.564Z,13.50
2022-10-10T19:37:04.259Z,13.50
2022-10-10T19:39:32.939Z,13.50
2022-10-10T19:42:01.214Z,13.40
2022-10-10T19:44:29.647Z,13.40
2022-10-10T19:49:45.780Z,13.40
2022-10-10T19:52:14.220Z,13.40
2022-10-10T19:54:42.885Z,13.40
2022-10-10T19:57:11.502Z,13.40
2022-10-10T19:59:39.987Z,13.30
2022-10-10T20:02:11.585Z,13.30
2022-10-10T20:04:40.014Z,13.20
2022-10-10T20:07:08.635Z,13.20
2022-10-10T20:09:37.082Z,13.10
2022-10-10T20:12:05.587Z,13.10
2022-10-10T20:14:34.347Z,13.10
2022-10-10T20:17:02.638Z,13.10
2022-10-10T20:19:32.580Z,13.10
2022-10-10T20:22:01.216Z,13.00
2022-10-10T20:24:29.934Z,13.00
2022-10-10T20:26:58.601Z,12.90
2022-10-10T20:29:26.881Z,12.90
2022-10-10T20:31:55.357Z,12.90
2022-10-10T20:34:23.772Z,12.90
2022-10-10T20:36:53.809Z,12.90
2022-10-10T20:39:22.441Z,12.80
2022-10-10T20:41:50.898Z,12.80
2022-10-10T20:44:19.308Z,12.70
2022-10-10T20:46:47.848Z,12.70
2022-10-10T20:49:17.986Z,12.70
2022-10-10T20:51:50.580Z,12.70
2022-10-10T20:54:23.004Z,12.70
2022-10-10T20:56:51.641Z,12.70
2022-10-10T20:59:21.363Z,12.70
2022-10-10T21:01:49.980Z,12.70
2022-10-10T21:04:18.554Z,12.70
2022-10-10T21:06:47.070Z,12.70
2022-10-10T21:09:16.550Z,12.70
2022-10-10T21:11:50.914Z,12.70
2022-10-10T21:14:20.217Z,12.70
2022-10-10T21:16:50.695Z,12.70
2022-10-10T21:19:19.309Z,12.70
2022-10-10T21:21:47.784Z,12.70
2022-10-10T21:24:16.427Z,12.70
2022-10-10T21:26:49.446Z,12.60
2022-10-10T21:29:18.388Z,12.60
2022-10-10T21:31:46.962Z,12.60
2022-10-10T21:34:18.754Z,12.60
2022-10-10T21:36:48.440Z,12.60
2022-10-10T21:39:16.836Z,12.60
2022-10-10T21:42:07.767Z,12.60
2022-10-10T21:44:36.410Z,12.60
2022-10-10T21:47:05.077Z,12.60
2022-10-10T21:49:34.399Z,12.60
2022-10-10T21:52:03.164Z,12.60
2022-10-10T21:54:31.557Z,12.50
2022-10-10T21:57:00.218Z,12.50
2022-10-10T21:59:32.667Z,12.50
2022-10-10T22:02:01.163Z,12.50
2022-10-10T22:04:29.871Z,12.50
2022-10-10T22:06:59.162Z,12.50
2022-10-10T22:09:27.423Z,12.40
2022-10-10T22:11:56.388Z,12.40
2022-10-10T22:14:24.974Z,12.40
2022-10-10T22:16:54.873Z,12.40
2022-10-10T22:19:23.336Z,12.40
2022-10-10T22:21:51.842Z,12.40
2022-10-10T22:24:20.122Z,12.40
2022-10-10T22:26:48.679Z,12.40
2022-10-10T22:29:17.380Z,12.50
2022-10-10T22:31:46.327Z,12.50
2022-10-10T22:34:16.390Z,12.40
2022-10-10T22:36:44.975Z,12.40
2022-10-10T22:39:15.102Z,12.40
2022-10-10T22:41:43.524Z,12.40
2022-10-10T22:44:11.821Z,12.40
2022-10-10T22:46:40.149Z,12.40
2022-10-10T22:49:08.903Z,12.40
2022-10-10T22:51:39.636Z,12.40
2022-10-10T22:54:08.454Z,12.40
2022-10-10T22:56:37.121Z,12.40
2022-10-10T22:59:30.318Z,12.40
2022-10-10T23:01:58.831Z,12.40
2022-10-10T23:04:27.276Z,12.40
2022-10-10T23:06:57.320Z,12.40
2022-10-10T23:09:26.021Z,12.40
2022-10-10T23:11:54.579Z,12.50
2022-10-10T23:14:22.956Z,12.40
2022-10-10T23:16:51.242Z,12.40
2022-10-10T23:19:19.560Z,12.30
2022-10-10T23:21:48.223Z,12.30
2022-10-10T23:24:18.523Z,12.30
2022-10-10T23:26:47.483Z,12.30
2022-10-10T23:29:15.879Z,12.30
2022-10-10T23:31:44.680Z,12.30
2022-10-10T23:34:14.652Z,12.30
2022-10-10T23:36:42.989Z,12.30
2022-10-10T23:39:11.695Z,12.30
2022-10-10T23:41:41.606Z,12.30
2022-10-10T23:44:10.227Z,12.30
2022-10-10T23:46:38.604Z,12.40
2022-10-10T23:49:10.199Z,12.30
2022-10-10T23:51:38.615Z,12.30
2022-10-10T23:54:07.275Z,12.30
2022-10-10T23:56:35.636Z,12.40
2022-10-10T23:59:05.428Z,12.40
